Hannibal, MO (63401)

12:25 PM CST on November 22, 2014 (GMT -0600)
NonFedAWOS HANNIBAL MO US MODOT | Change Station
CLOSE
Current Station
Personal Weather Station
Location: Hannibal, MO
Elevation: 772 ft
Nearby Weather Stations

Elev 772 ft 39.72 °N, 91.44 °W | Updated 7 days ago

Overcast
Overcast
60 °F
Feels Like 60 °F
N
12
Wind Variable Wind from SSW
Gusts 18 mph

Today
High -- | Low -- °F
--% Chance of Precip.
Yesterday
High -- | Low -- °F
Precip. -- in
6:57 AM 4:45 PM
New Moon, 0% visible
Pressure 29.95 in
Visibility 10.0 miles
Clouds Mostly Cloudy 2100 ft
Mostly Cloudy 3900 ft
Dew Point 49 °F
Humidity 69%
Rainfall -999.00 in
Snow Depth Not available.
UV 2 out of 12
Pollen .10 out of 12
Air Quality Not available.
Flu Activity Not available.
METAR KUIN 221754Z AUTO 21018KT 10SM BKN021 BKN039 14/09 A2994 RMK AO2 SLP140 T01390089 10150 20078 55018

More Conditions Fewer Conditions

Pressure 29.95 in
Visibility 10.0 miles
Clouds Mostly Cloudy 2100 ft
Mostly Cloudy 3900 ft
Dew Point 49 °F
Humidity 69%
Rainfall -999.00 in
Snow Depth Not available.
UV 2 out of 12
Pollen .10 out of 12
Air Quality Not available.
Flu Activity Not available.
METAR KUIN 221754Z AUTO 21018KT 10SM BKN021 BKN039 14/09 A2994 RMK AO2 SLP140 T01390089 10150 20078 55018

More Conditions Fewer Conditions

10-Day Weather Forecast

Almanac

Astronomy

Nov. 22, 2014 Rise Set
Actual Time
Civil Twilight
Nautical Twilight
Astronomical Twilight
Moon
Length of Visible Light
Length of Day
Tomorrow will be .
, % of the Moon is Illuminated

Today's Extremes

State Highs State Lows

Community

WunderPhotos

Upload Photos

1,772,872 photos uploaded!

WunderBlogs® & News

Nearby

Air Quality

  Air Quality AQ Index Pollutant
Not available.

Snow Depth

Station Depth Elevation

Earthquake Activity

City Distance Mag. Time & Date
Minimum magnitude displayed is 2.5.

Coastal Water Temperatures

Place Temperature

Nearby Weather Stations